Time;durP1;ratioP1;P1;durP2;ratioP2;P2;SDS_P1;SDS_P2;PMS_P1;PMS_P2;Temp;Humidity;BMP_temperature;BMP_pressure;BME280_temperature;BME280_humidity;BME280_pressure;Samples;Min_cycle;Max_cycle;Signal;HPM_P1;HPM_P2
2022/07/27 00:01:05;;;;;;;6.82;3.72;;;25.90;63.20;;;;;;6152641;28;81247;-68
2022/07/27 00:04:06;;;;;;;5.82;3.58;;;25.90;62.40;;;;;;6145197;28;80459;-69
2022/07/27 00:07:06;;;;;;;6.45;3.50;;;25.90;62.20;;;;;;6149155;28;80243;-68
2022/07/27 00:10:07;;;;;;;4.10;3.28;;;25.90;62.20;;;;;;6155357;28;80541;-68
2022/07/27 00:13:07;;;;;;;5.72;3.13;;;25.90;62.10;;;;;;6152504;28;80341;-68
2022/07/27 00:16:08;;;;;;;5.15;3.40;;;25.90;62.10;;;;;;6159386;28;81124;-68
2022/07/27 00:19:08;;;;;;;4.93;3.42;;;25.90;62.00;;;;;;6142736;28;80366;-69
2022/07/27 00:22:08;;;;;;;5.97;3.60;;;25.90;61.90;;;;;;6155369;28;80042;-68
2022/07/27 00:25:09;;;;;;;7.63;3.10;;;25.90;61.90;;;;;;6161310;28;80243;-66
2022/07/27 00:28:09;;;;;;;4.47;3.10;;;25.90;61.70;;;;;;6152460;28;80447;-66
2022/07/27 00:31:10;;;;;;;5.38;3.83;;;25.90;61.80;;;;;;6162249;28;80313;-66
2022/07/27 00:34:10;;;;;;;5.28;3.40;;;25.90;61.80;;;;;;6162025;28;80651;-65
2022/07/27 00:37:11;;;;;;;5.05;3.03;;;25.90;61.70;;;;;;6154573;28;81467;-66
2022/07/27 00:40:11;;;;;;;7.15;3.58;;;25.90;61.60;;;;;;6151003;28;80389;-66
2022/07/27 00:43:12;;;;;;;4.93;3.70;;;25.90;61.60;;;;;;6159141;28;80603;-67
2022/07/27 00:46:12;;;;;;;4.72;3.17;;;25.90;61.60;;;;;;6150223;28;80913;-66
2022/07/27 00:49:13;;;;;;;3.97;3.10;;;25.90;61.50;;;;;;6161962;28;80094;-66
2022/07/27 00:52:13;;;;;;;5.35;3.28;;;25.90;61.40;;;;;;6159931;28;82213;-66
2022/07/27 00:55:14;;;;;;;6.68;3.00;;;25.90;61.30;;;;;;6156072;28;80834;-67
2022/07/27 00:58:15;;;;;;;5.45;3.00;;;25.90;61.20;;;;;;6157680;28;80324;-67
2022/07/27 01:01:16;;;;;;;4.75;3.83;;;25.90;61.20;;;;;;6161848;28;80308;-66
2022/07/27 01:04:16;;;;;;;5.75;3.47;;;25.90;61.10;;;;;;6161551;28;80684;-65
2022/07/27 01:07:17;;;;;;;5.78;3.63;;;25.90;61.20;;;;;;6161826;28;80948;-67
2022/07/27 01:10:17;;;;;;;3.42;2.70;;;25.90;61.10;;;;;;6148531;28;80528;-67
2022/07/27 01:13:18;;;;;;;3.13;2.83;;;25.90;61.10;;;;;;6157992;28;80374;-67
2022/07/27 01:16:18;;;;;;;4.53;2.67;;;25.90;60.70;;;;;;6149216;28;80352;-67
2022/07/27 01:19:19;;;;;;;7.95;3.25;;;25.90;60.50;;;;;;6152425;28;80407;-68
2022/07/27 01:22:19;;;;;;;5.30;3.70;;;25.90;60.30;;;;;;6147464;28;80357;-67
2022/07/27 01:25:20;;;;;;;6.03;3.45;;;25.90;61.00;;;;;;6154294;28;81596;-67
2022/07/27 01:28:20;;;;;;;5.40;2.97;;;25.90;60.30;;;;;;6151379;28;80073;-67
2022/07/27 01:31:20;;;;;;;5.32;2.80;;;25.90;60.10;;;;;;6146136;28;80261;-67
2022/07/27 01:34:21;;;;;;;4.28;2.72;;;25.90;60.00;;;;;;6150116;28;80231;-66
2022/07/27 01:37:21;;;;;;;3.05;2.53;;;25.90;60.00;;;;;;6145365;28;80452;-67
2022/07/27 01:40:22;;;;;;;6.60;3.30;;;25.90;60.00;;;;;;6147481;28;80304;-67
2022/07/27 01:43:22;;;;;;;10.75;3.58;;;25.80;60.00;;;;;;6161222;28;80425;-67
2022/07/27 01:46:23;;;;;;;3.85;2.88;;;25.90;60.00;;;;;;6150251;28;80136;-67
2022/07/27 01:49:23;;;;;;;6.40;2.58;;;25.90;60.00;;;;;;6146920;28;80346;-67
2022/07/27 01:52:24;;;;;;;2.90;2.28;;;25.90;59.90;;;;;;6160603;28;80922;-66
2022/07/27 01:55:24;;;;;;;4.40;2.80;;;25.90;59.70;;;;;;6160690;28;80370;-66
2022/07/27 01:58:25;;;;;;;3.85;2.70;;;25.90;59.50;;;;;;6146729;28;80377;-67
2022/07/27 02:01:25;;;;;;;4.82;2.90;;;25.90;60.30;;;;;;6158954;28;81498;-68
2022/07/27 02:04:26;;;;;;;4.80;2.40;;;25.80;59.60;;;;;;6149263;28;80505;-67
2022/07/27 02:07:26;;;;;;;6.85;3.38;;;25.90;59.50;;;;;;6149159;28;80073;-67
2022/07/27 02:10:27;;;;;;;6.45;3.42;;;25.90;59.50;;;;;;6155172;28;80618;-68
2022/07/27 02:13:27;;;;;;;3.28;2.70;;;25.80;59.40;;;;;;6153563;28;81233;-67
2022/07/27 02:16:28;;;;;;;8.48;3.22;;;25.80;59.20;;;;;;6151922;28;80489;-66
2022/07/27 02:19:28;;;;;;;4.90;2.65;;;25.80;59.10;;;;;;6160107;28;81215;-67
2022/07/27 02:22:28;;;;;;;4.47;2.78;;;25.80;58.90;;;;;;6160489;28;80439;-67
2022/07/27 02:25:29;;;;;;;6.35;2.92;;;25.80;58.70;;;;;;6154438;28;80554;-67
2022/07/27 02:28:29;;;;;;;3.60;2.80;;;25.80;58.80;;;;;;6142809;28;80264;-66
2022/07/27 02:31:30;;;;;;;4.15;2.40;;;25.80;58.80;;;;;;6144917;28;80518;-67
2022/07/27 02:34:30;;;;;;;3.58;2.33;;;25.80;58.80;;;;;;6150590;28;80496;-66
2022/07/27 02:37:31;;;;;;;8.98;2.90;;;25.80;58.90;;;;;;6153136;28;80198;-66
2022/07/27 02:40:31;;;;;;;5.57;2.72;;;25.70;58.90;;;;;;6156242;28;80908;-67
2022/07/27 02:43:32;;;;;;;3.47;2.53;;;25.80;58.60;;;;;;6149601;28;80888;-66
2022/07/27 02:46:32;;;;;;;7.38;3.30;;;25.80;58.60;;;;;;6154104;28;81587;-66
2022/07/27 02:49:33;;;;;;;4.18;2.60;;;25.80;58.70;;;;;;6167088;28;80307;-66
2022/07/27 02:52:33;;;;;;;6.82;3.10;;;25.80;58.50;;;;;;6156837;28;80242;-65
2022/07/27 02:55:34;;;;;;;6.80;3.15;;;25.70;58.30;;;;;;6156877;28;83416;-66
2022/07/27 02:58:34;;;;;;;4.07;2.97;;;25.80;58.30;;;;;;6160477;28;80370;-66
2022/07/27 03:01:35;;;;;;;2.67;2.33;;;25.80;58.20;;;;;;6153410;28;80383;-66
2022/07/27 03:04:35;;;;;;;2.75;2.55;;;25.70;58.10;;;;;;6141602;28;80562;-66
2022/07/27 03:07:36;;;;;;;4.15;3.22;;;25.70;58.00;;;;;;6144895;28;80201;-66
2022/07/27 03:10:36;;;;;;;12.57;3.28;;;25.70;58.00;;;;;;6159151;28;81049;-67
2022/07/27 03:13:37;;;;;;;2.92;2.30;;;25.70;57.90;;;;;;6145675;28;80539;-66
2022/07/27 03:16:38;;;;;;;4.65;2.83;;;25.70;57.80;;;;;;6157051;28;80438;-66
2022/07/27 03:19:38;;;;;;;3.45;2.85;;;25.70;57.80;;;;;;6159352;28;79981;-66
2022/07/27 03:22:39;;;;;;;3.22;2.72;;;25.70;57.80;;;;;;6145957;28;80520;-66
2022/07/27 03:25:39;;;;;;;4.63;2.97;;;25.70;57.80;;;;;;6129460;28;80968;-67
2022/07/27 03:28:40;;;;;;;9.82;3.38;;;25.70;57.80;;;;;;6148849;28;80902;-67
2022/07/27 03:31:40;;;;;;;4.78;2.83;;;25.70;57.80;;;;;;6147253;28;80961;-67
2022/07/27 03:34:41;;;;;;;5.78;2.80;;;25.70;57.80;;;;;;6150958;28;83185;-67
2022/07/27 03:37:41;;;;;;;5.53;3.35;;;25.70;57.90;;;;;;6157549;28;80622;-67
2022/07/27 03:40:42;;;;;;;5.10;3.03;;;25.70;57.90;;;;;;6139680;28;81578;-67
2022/07/27 03:43:43;;;;;;;3.83;2.78;;;25.70;58.00;;;;;;6152881;28;80853;-66
2022/07/27 03:46:43;;;;;;;5.93;3.47;;;25.70;57.80;;;;;;6159224;28;80819;-66
2022/07/27 03:49:44;;;;;;;7.38;2.95;;;25.70;58.30;;;;;;6150024;28;80282;-67
2022/07/27 03:52:44;;;;;;;7.07;3.15;;;25.70;57.80;;;;;;6137237;28;80376;-67
2022/07/27 03:55:45;;;;;;;5.60;3.20;;;25.70;57.60;;;;;;6137702;28;80605;-66
2022/07/27 03:58:45;;;;;;;3.75;2.60;;;25.70;57.70;;;;;;6154546;28;80912;-67
2022/07/27 04:01:46;;;;;;;3.35;2.53;;;25.70;57.70;;;;;;6157070;28;80261;-67
2022/07/27 04:04:46;;;;;;;6.45;2.72;;;25.70;57.70;;;;;;6160728;28;80332;-65
2022/07/27 04:07:47;;;;;;;4.30;3.00;;;25.70;57.80;;;;;;6161022;28;80655;-67
2022/07/27 04:10:47;;;;;;;3.42;2.75;;;25.70;57.90;;;;;;6152195;28;80399;-67
2022/07/27 04:13:48;;;;;;;4.35;3.00;;;25.70;57.80;;;;;;6148369;28;80585;-68
2022/07/27 04:16:48;;;;;;;5.68;3.20;;;25.70;57.70;;;;;;6139324;28;80893;-68
2022/07/27 04:19:49;;;;;;;4.28;2.60;;;25.70;57.80;;;;;;6124756;28;80154;-67
2022/07/27 04:22:49;;;;;;;3.63;2.70;;;25.70;58.20;;;;;;6136857;28;80268;-68
2022/07/27 04:25:49;;;;;;;5.10;2.85;;;25.70;58.50;;;;;;6137414;28;81625;-68
2022/07/27 04:28:50;;;;;;;3.05;2.60;;;25.80;58.40;;;;;;6152125;28;80643;-70
2022/07/27 04:31:50;;;;;;;5.68;2.50;;;25.70;58.40;;;;;;6153364;28;80291;-68
2022/07/27 04:34:51;;;;;;;6.50;3.05;;;25.80;58.70;;;;;;6156469;28;80876;-67
2022/07/27 04:37:51;;;;;;;6.07;2.95;;;25.80;58.40;;;;;;6148726;28;80532;-67
2022/07/27 04:40:52;;;;;;;4.97;3.13;;;25.90;58.40;;;;;;6159997;28;80654;-66
2022/07/27 04:43:52;;;;;;;6.75;2.92;;;25.90;58.60;;;;;;6161691;28;80847;-68
2022/07/27 04:46:53;;;;;;;4.30;3.05;;;25.90;58.50;;;;;;6162092;28;80559;-67
2022/07/27 04:49:53;;;;;;;6.20;3.05;;;25.90;58.70;;;;;;6159115;28;84348;-66
2022/07/27 04:52:54;;;;;;;6.35;3.72;;;25.90;58.40;;;;;;6161448;28;81595;-67
2022/07/27 04:55:54;;;;;;;10.20;3.33;;;25.90;58.30;;;;;;6150365;28;80223;-69
2022/07/27 04:58:55;;;;;;;5.57;3.42;;;26.00;58.60;;;;;;6161252;28;81335;-71
2022/07/27 05:01:55;;;;;;;8.40;4.03;;;25.90;58.60;;;;;;6147472;28;80575;-68
2022/07/27 05:04:56;;;;;;;3.10;2.78;;;25.90;58.60;;;;;;6144805;28;80341;-69
2022/07/27 05:07:56;;;;;;;10.48;3.88;;;25.90;58.70;;;;;;6151279;28;81520;-67
2022/07/27 05:10:57;;;;;;;4.75;3.05;;;25.90;58.80;;;;;;6139983;28;80486;-67
2022/07/27 05:13:57;;;;;;;6.90;3.45;;;25.90;58.80;;;;;;6152135;28;81196;-70
2022/07/27 05:16:58;;;;;;;5.55;3.58;;;26.00;58.80;;;;;;6145829;28;81280;-67
2022/07/27 05:19:58;;;;;;;6.15;3.95;;;25.90;58.70;;;;;;6150363;28;81637;-68
2022/07/27 05:22:59;;;;;;;10.55;3.95;;;25.80;58.30;;;;;;6147240;28;80439;-70
2022/07/27 05:25:59;;;;;;;9.82;4.70;;;25.70;58.00;;;;;;6137182;28;80905;-70
2022/07/27 05:29:00;;;;;;;8.90;5.22;;;25.20;58.70;;;;;;6143337;28;80374;-71
2022/07/27 05:32:00;;;;;;;12.85;5.22;;;24.60;60.10;;;;;;6147432;28;80885;-68
2022/07/27 05:35:01;;;;;;;10.50;6.00;;;24.60;60.50;;;;;;6157848;28;80585;-67
2022/07/27 05:38:01;;;;;;;7.60;4.50;;;24.70;60.60;;;;;;6155497;28;81681;-67
2022/07/27 05:41:02;;;;;;;13.15;5.47;;;24.90;60.60;;;;;;6151766;28;80800;-67
2022/07/27 05:44:02;;;;;;;6.75;4.40;;;24.90;60.30;;;;;;6160159;28;81053;-67
2022/07/27 05:47:03;;;;;;;13.38;4.82;;;24.90;60.60;;;;;;6146436;28;80350;-66
2022/07/27 05:50:03;;;;;;;9.60;4.38;;;25.00;60.70;;;;;;6149347;28;81447;-67
2022/07/27 05:53:04;;;;;;;9.63;4.18;;;25.20;60.70;;;;;;6146624;28;87541;-66
2022/07/27 05:56:06;;;;;;;10.57;4.78;;;25.20;60.60;;;;;;6155240;28;80459;-67
2022/07/27 05:59:07;;;;;;;9.73;4.85;;;25.30;60.50;;;;;;6153864;28;80613;-67
2022/07/27 06:02:07;;;;;;;8.45;4.57;;;25.40;60.60;;;;;;6154913;28;80933;-67
2022/07/27 06:05:08;;;;;;;9.63;5.75;;;25.40;60.40;;;;;;6146883;28;81743;-67
2022/07/27 06:08:08;;;;;;;8.23;5.88;;;25.40;60.50;;;;;;6142713;28;80243;-67
2022/07/27 06:11:09;;;;;;;9.40;5.03;;;25.30;60.30;;;;;;6153364;28;81018;-77
2022/07/27 06:14:10;;;;;;;12.48;5.63;;;25.30;60.90;;;;;;6142047;28;80603;-67
2022/07/27 06:17:10;;;;;;;8.25;4.97;;;25.40;60.70;;;;;;6140724;28;81949;-66
2022/07/27 06:20:11;;;;;;;9.65;5.65;;;25.50;60.90;;;;;;6143036;28;80355;-69
2022/07/27 06:23:11;;;;;;;9.68;5.32;;;25.50;60.60;;;;;;6140400;28;80148;-67
2022/07/27 06:26:12;;;;;;;7.18;5.00;;;25.60;60.80;;;;;;6139881;28;80852;-67
2022/07/27 06:29:12;;;;;;;12.07;5.15;;;25.50;60.50;;;;;;6143500;28;80822;-67
2022/07/27 06:32:13;;;;;;;13.18;5.40;;;25.50;60.70;;;;;;6146349;28;80690;-66
2022/07/27 06:35:13;;;;;;;11.60;6.25;;;25.50;60.70;;;;;;6149781;28;81728;-66
2022/07/27 06:38:14;;;;;;;12.10;5.80;;;25.50;60.80;;;;;;6147053;28;80228;-67
2022/07/27 06:41:14;;;;;;;12.32;6.20;;;25.50;60.90;;;;;;6142578;28;80733;-67
2022/07/27 06:44:15;;;;;;;12.02;5.93;;;25.50;60.90;;;;;;6144099;28;80067;-62
2022/07/27 06:47:15;;;;;;;8.23;4.72;;;25.30;61.40;;;;;;6159789;28;80581;-64
2022/07/27 06:50:16;;;;;;;9.48;4.55;;;25.40;61.40;;;;;;6151662;28;80182;-62
2022/07/27 06:53:16;;;;;;;9.18;5.20;;;25.50;61.20;;;;;;6140659;28;80354;-66
2022/07/27 06:56:17;;;;;;;11.10;4.93;;;25.60;61.20;;;;;;6152163;28;81155;-66
2022/07/27 06:59:17;;;;;;;10.18;5.70;;;25.60;60.80;;;;;;6148624;28;80699;-65
2022/07/27 07:02:18;;;;;;;9.02;4.90;;;25.60;61.00;;;;;;6155135;28;80163;-67
2022/07/27 07:05:18;;;;;;;11.63;6.25;;;25.60;61.40;;;;;;6152250;28;80695;-64
2022/07/27 07:08:20;;;;;;;17.58;6.43;;;25.70;61.00;;;;;;6152985;28;81273;-62
2022/07/27 07:11:20;;;;;;;15.70;6.05;;;25.60;61.20;;;;;;6155784;28;80703;-62
2022/07/27 07:14:21;;;;;;;13.65;6.53;;;25.70;62.00;;;;;;6147185;28;81379;-64
2022/07/27 07:17:21;;;;;;;10.88;6.10;;;25.70;63.30;;;;;;6154571;28;80437;-63
2022/07/27 07:20:22;;;;;;;13.05;7.10;;;25.70;61.60;;;;;;6152042;28;80568;-67
2022/07/27 07:23:22;;;;;;;17.63;8.50;;;25.80;61.10;;;;;;6139380;28;80630;-69
2022/07/27 07:26:23;;;;;;;15.02;8.60;;;25.70;60.50;;;;;;6160403;28;80382;-75
2022/07/27 07:29:23;;;;;;;12.95;8.63;;;25.50;62.20;;;;;;6159773;28;80345;-68
2022/07/27 07:32:24;;;;;;;24.17;9.10;;;25.40;63.60;;;;;;6150418;28;80382;-62
2022/07/27 07:35:24;;;;;;;14.52;9.45;;;25.30;62.60;;;;;;6160021;28;80422;-62
2022/07/27 07:38:25;;;;;;;11.45;7.75;;;25.20;63.10;;;;;;6162407;28;81439;-61
2022/07/27 07:41:26;;;;;;;13.52;8.48;;;25.10;63.30;;;;;;6140403;28;80407;-62
2022/07/27 07:44:26;;;;;;;19.33;7.47;;;25.10;63.30;;;;;;6155512;28;80660;-68
2022/07/27 07:47:27;;;;;;;14.48;8.15;;;25.20;62.80;;;;;;6147013;28;81538;-61
2022/07/27 07:50:27;;;;;;;22.45;7.22;;;25.30;62.60;;;;;;6153777;28;80411;-64
2022/07/27 07:53:28;;;;;;;13.43;6.97;;;25.50;62.30;;;;;;6149855;28;80264;-66
2022/07/27 07:56:28;;;;;;;11.88;6.85;;;25.50;62.30;;;;;;6163090;28;80488;-68
2022/07/27 07:59:29;;;;;;;11.18;7.05;;;25.50;61.90;;;;;;6158951;28;80811;-69
2022/07/27 08:02:29;;;;;;;10.57;6.95;;;25.50;61.50;;;;;;6154568;28;80743;-71
2022/07/27 08:05:30;;;;;;;17.20;7.65;;;25.50;61.70;;;;;;6155852;28;80859;-69
2022/07/27 08:08:31;;;;;;;12.82;7.40;;;25.50;61.50;;;;;;6152230;28;80216;-69
2022/07/27 08:11:32;;;;;;;18.83;7.03;;;25.40;61.90;;;;;;6154189;28;80932;-69
2022/07/27 08:14:32;;;;;;;14.07;8.68;;;25.40;61.80;;;;;;6155458;28;80178;-70
2022/07/27 08:17:33;;;;;;;19.08;8.32;;;25.20;62.00;;;;;;6156848;28;80781;-68
2022/07/27 08:20:33;;;;;;;15.13;8.70;;;25.00;63.00;;;;;;6160048;28;80013;-70
2022/07/27 08:23:34;;;;;;;29.55;12.10;;;24.80;63.90;;;;;;6146901;28;80368;-70
2022/07/27 08:26:34;;;;;;;49.00;17.25;;;25.00;63.60;;;;;;6151712;28;88850;-71
2022/07/27 08:29:35;;;;;;;74.45;25.52;;;25.10;62.90;;;;;;6160138;28;83164;-73
2022/07/27 08:32:36;;;;;;;39.20;17.98;;;25.20;62.80;;;;;;6158076;28;83117;-72
2022/07/27 08:35:36;;;;;;;35.38;14.60;;;25.20;62.80;;;;;;6149384;28;83696;-73
2022/07/27 08:38:36;;;;;;;17.30;10.82;;;25.20;62.30;;;;;;6144658;28;83645;-73
2022/07/27 08:41:38;;;;;;;15.80;9.50;;;25.30;62.50;;;;;;6148564;28;83095;-72
2022/07/27 08:44:39;;;;;;;17.15;10.48;;;25.30;62.40;;;;;;6153501;28;83035;-71
2022/07/27 08:47:40;;;;;;;20.83;10.00;;;25.30;61.90;;;;;;6150998;28;83259;-73
2022/07/27 08:50:40;;;;;;;12.45;8.43;;;25.20;61.70;;;;;;6148881;28;83174;-73
2022/07/27 08:53:41;;;;;;;15.02;9.95;;;25.30;61.90;;;;;;6144083;28;84083;-72
2022/07/27 08:56:42;;;;;;;31.55;14.20;;;25.30;61.80;;;;;;6158830;28;80717;-70
2022/07/27 08:59:42;;;;;;;50.63;16.25;;;25.30;62.40;;;;;;6145889;28;82898;-69
2022/07/27 09:02:43;;;;;;;27.52;11.27;;;25.30;62.10;;;;;;6139831;28;83315;-71
2022/07/27 09:05:43;;;;;;;22.95;10.68;;;25.30;62.10;;;;;;6142157;28;83416;-69
2022/07/27 09:08:44;;;;;;;15.80;7.60;;;25.20;62.30;;;;;;6145899;28;83067;-70
2022/07/27 09:11:44;;;;;;;12.88;8.23;;;24.90;63.10;;;;;;6163223;28;82928;-68
2022/07/27 09:14:45;;;;;;;13.93;8.57;;;25.00;64.70;;;;;;6150423;28;81149;-69
2022/07/27 09:17:46;;;;;;;11.20;8.00;;;25.00;65.20;;;;;;6160749;28;80860;-69
2022/07/27 09:20:46;;;;;;;14.60;8.05;;;24.80;64.10;;;;;;6154526;28;81313;-69
2022/07/27 09:23:47;;;;;;;11.57;7.90;;;24.70;64.10;;;;;;6153867;28;80866;-78
2022/07/27 09:26:48;;;;;;;13.63;8.93;;;24.60;64.50;;;;;;6156187;28;80369;-70
2022/07/27 09:29:48;;;;;;;13.30;8.45;;;24.60;64.30;;;;;;6152042;28;80512;-72
2022/07/27 09:32:49;;;;;;;15.63;8.80;;;24.70;65.10;;;;;;6151437;28;81605;-67
2022/07/27 09:35:50;;;;;;;11.02;8.52;;;24.90;64.70;;;;;;6154627;28;84644;-72
2022/07/27 09:38:50;;;;;;;13.65;7.85;;;25.20;64.00;;;;;;6147009;28;80726;-72
2022/07/27 09:41:51;;;;;;;17.50;7.78;;;25.30;64.70;;;;;;6139776;28;80465;-72
2022/07/27 09:44:51;;;;;;;9.57;7.50;;;25.40;64.20;;;;;;6153682;28;80504;-72
2022/07/27 09:47:52;;;;;;;10.93;8.18;;;25.40;63.80;;;;;;6160931;28;80597;-70
2022/07/27 09:50:52;;;;;;;11.13;8.70;;;25.50;63.90;;;;;;6145745;28;80185;-68
2022/07/27 09:53:53;;;;;;;14.30;9.35;;;25.60;64.60;;;;;;6150283;28;80491;-68
2022/07/27 09:56:54;;;;;;;11.85;7.75;;;25.60;63.30;;;;;;6156775;28;80356;-68
2022/07/27 09:59:54;;;;;;;10.07;7.95;;;25.70;63.00;;;;;;6147430;28;80508;-69
2022/07/27 10:02:55;;;;;;;10.95;8.00;;;25.80;63.00;;;;;;6140300;28;80744;-68
2022/07/27 10:05:55;;;;;;;14.00;8.43;;;25.90;62.30;;;;;;6151132;28;81027;-68
2022/07/27 10:08:56;;;;;;;13.55;8.02;;;25.90;61.90;;;;;;6144362;28;80178;-68
2022/07/27 10:11:57;;;;;;;11.57;7.00;;;25.90;60.70;;;;;;6127285;28;81632;-68
2022/07/27 10:14:57;;;;;;;13.18;7.00;;;26.00;60.60;;;;;;6132153;28;80501;-68
2022/07/27 10:17:58;;;;;;;13.00;7.60;;;26.00;60.10;;;;;;6149120;28;80321;-68
2022/07/27 10:20:58;;;;;;;18.70;8.73;;;26.00;60.20;;;;;;6154220;28;80868;-69
2022/07/27 10:23:59;;;;;;;10.13;7.00;;;26.00;60.30;;;;;;6150455;28;80335;-69
2022/07/27 10:26:59;;;;;;;10.32;7.93;;;25.90;60.20;;;;;;6160969;28;80958;-69
2022/07/27 10:30:00;;;;;;;13.35;7.80;;;26.00;60.40;;;;;;6156436;28;80540;-70
2022/07/27 10:33:00;;;;;;;10.98;7.53;;;26.10;60.20;;;;;;6123510;28;80526;-69
2022/07/27 10:36:02;;;;;;;13.98;7.32;;;26.10;60.00;;;;;;6151146;28;80390;-69
2022/07/27 10:39:03;;;;;;;9.95;7.53;;;26.00;60.10;;;;;;6158633;28;80895;-70
2022/07/27 10:42:03;;;;;;;13.88;7.28;;;26.00;60.20;;;;;;6147288;28;80449;-70
2022/07/27 10:45:04;;;;;;;11.40;7.78;;;26.10;60.10;;;;;;6155476;28;80438;-70
2022/07/27 10:48:05;;;;;;;13.82;7.95;;;26.10;59.60;;;;;;6149110;28;80702;-70
2022/07/27 10:51:05;;;;;;;10.50;7.28;;;26.10;59.10;;;;;;6158026;28;80351;-69
2022/07/27 10:54:06;;;;;;;11.40;6.53;;;26.10;58.90;;;;;;6156120;28;80968;-69
2022/07/27 10:57:06;;;;;;;13.05;7.00;;;26.20;59.10;;;;;;6152607;28;80304;-69
2022/07/27 11:00:08;;;;;;;14.32;7.45;;;26.20;59.00;;;;;;6160425;28;81158;-69
2022/07/27 11:03:09;;;;;;;9.23;6.55;;;26.20;59.00;;;;;;6160618;28;80286;-70
2022/07/27 11:06:11;;;;;;;10.88;6.78;;;26.00;58.40;;;;;;6160120;28;81055;-69
2022/07/27 11:09:11;;;;;;;8.98;6.15;;;26.10;58.70;;;;;;6158879;28;85298;-68
2022/07/27 11:12:12;;;;;;;10.23;6.65;;;26.10;58.40;;;;;;6160330;28;80691;-68
2022/07/27 11:15:13;;;;;;;14.63;6.47;;;26.20;58.40;;;;;;6150284;28;80529;-69
2022/07/27 11:18:13;;;;;;;10.25;5.82;;;26.30;58.70;;;;;;6156860;28;80375;-68
2022/07/27 11:21:14;;;;;;;8.00;5.40;;;26.40;59.20;;;;;;6155645;28;80237;-68
2022/07/27 11:24:18;;;;;;;5.65;4.85;;;26.30;56.80;;;;;;6147145;28;80704;-69
2022/07/27 11:27:18;;;;;;;8.13;5.80;;;26.30;56.40;;;;;;6149808;28;80444;-70
2022/07/27 11:30:19;;;;;;;9.57;5.78;;;26.20;56.30;;;;;;6157146;28;80121;-69
2022/07/27 11:33:19;;;;;;;8.35;5.13;;;26.30;57.60;;;;;;6159480;28;80684;-69
2022/07/27 11:36:20;;;;;;;10.88;5.05;;;26.40;57.40;;;;;;6151991;28;80496;-69
2022/07/27 11:39:20;;;;;;;7.32;4.88;;;26.40;57.40;;;;;;6159475;28;80674;-70
2022/07/27 11:42:20;;;;;;;7.10;4.65;;;26.40;56.50;;;;;;6153903;28;80347;-70
2022/07/27 11:45:21;;;;;;;7.07;4.88;;;26.40;57.40;;;;;;6156650;28;80402;-69
2022/07/27 11:48:21;;;;;;;7.00;5.18;;;26.40;56.50;;;;;;6154205;28;80431;-69
2022/07/27 11:51:22;;;;;;;8.82;5.35;;;26.40;56.20;;;;;;6159301;28;80460;-69
2022/07/27 11:54:22;;;;;;;7.13;5.18;;;26.40;56.20;;;;;;6149088;28;79985;-69
2022/07/27 11:57:23;;;;;;;5.68;4.60;;;26.40;55.90;;;;;;6159717;28;80212;-69
2022/07/27 12:00:24;;;;;;;7.32;4.82;;;26.40;55.60;;;;;;6159086;28;80328;-70
2022/07/27 12:03:28;;;;;;;6.68;4.82;;;26.40;55.60;;;;;;6159637;28;80500;-70
2022/07/27 12:06:29;;;;;;;5.10;4.13;;;26.40;55.70;;;;;;6159007;28;80540;-70
2022/07/27 12:09:30;;;;;;;7.15;4.65;;;26.40;55.70;;;;;;6159137;28;80610;-69
2022/07/27 12:12:30;;;;;;;9.55;4.70;;;26.40;55.90;;;;;;6158699;28;80493;-70
2022/07/27 12:15:31;;;;;;;9.35;5.32;;;26.40;56.10;;;;;;6155357;28;81140;-69
2022/07/27 12:18:31;;;;;;;6.20;4.85;;;26.40;56.20;;;;;;6159317;28;80888;-69
2022/07/27 12:21:32;;;;;;;8.15;4.75;;;26.40;55.90;;;;;;6155702;28;80262;-69
2022/07/27 12:24:33;;;;;;;6.05;5.10;;;26.40;55.80;;;;;;6163470;28;80340;-69
2022/07/27 12:27:33;;;;;;;5.28;4.30;;;26.50;56.30;;;;;;6147352;28;80500;-69
2022/07/27 12:30:34;;;;;;;6.28;4.30;;;26.40;55.90;;;;;;6162621;28;80175;-70
2022/07/27 12:33:35;;;;;;;9.93;5.50;;;26.50;55.60;;;;;;6147722;28;81029;-69
2022/07/27 12:36:36;;;;;;;6.40;4.47;;;26.50;55.80;;;;;;6144985;28;80288;-69
2022/07/27 12:39:36;;;;;;;7.03;4.20;;;26.50;55.60;;;;;;6157773;28;80287;-69
2022/07/27 12:42:37;;;;;;;9.60;4.57;;;26.50;55.30;;;;;;6153917;28;80525;-69
2022/07/27 12:45:37;;;;;;;7.32;4.13;;;26.40;55.40;;;;;;6153142;28;80573;-68
2022/07/27 12:48:38;;;;;;;6.45;4.63;;;26.40;55.20;;;;;;6149411;28;80881;-69
2022/07/27 12:51:38;;;;;;;10.40;4.40;;;26.40;55.30;;;;;;6163095;28;80227;-73
2022/07/27 12:54:39;;;;;;;7.25;5.00;;;26.40;55.20;;;;;;6158715;28;80890;-74
2022/07/27 12:57:39;;;;;;;8.60;4.93;;;26.40;55.00;;;;;;6157055;28;80526;-66
2022/07/27 13:00:40;;;;;;;6.15;4.28;;;26.40;55.00;;;;;;6151229;28;80691;-68
2022/07/27 13:03:40;;;;;;;6.72;5.10;;;26.40;55.40;;;;;;6152731;28;80318;-66
2022/07/27 13:06:41;;;;;;;11.93;5.30;;;26.40;55.60;;;;;;6149746;28;82057;-66
2022/07/27 13:09:41;;;;;;;10.02;5.00;;;26.50;55.50;;;;;;6158455;28;81294;-66
2022/07/27 13:12:42;;;;;;;6.85;4.50;;;26.50;55.80;;;;;;6151433;28;80938;-68
2022/07/27 13:15:43;;;;;;;9.15;4.60;;;26.50;56.10;;;;;;6154158;28;80112;-68
2022/07/27 13:18:43;;;;;;;5.18;4.13;;;26.60;56.00;;;;;;6152296;28;81723;-67
2022/07/27 13:21:44;;;;;;;9.50;5.28;;;26.60;55.60;;;;;;6145870;28;81600;-68
2022/07/27 13:24:44;;;;;;;9.45;4.78;;;26.50;55.10;;;;;;6142951;28;80289;-68
2022/07/27 13:27:45;;;;;;;9.10;4.25;;;26.60;55.10;;;;;;6156396;28;80712;-68
2022/07/27 13:30:45;;;;;;;10.98;4.43;;;26.60;55.10;;;;;;6140684;28;81869;-69
2022/07/27 13:33:46;;;;;;;7.57;4.45;;;26.60;55.30;;;;;;6160343;28;80243;-69
2022/07/27 13:36:46;;;;;;;6.28;4.40;;;26.60;55.70;;;;;;6159766;28;81924;-71
2022/07/27 13:39:47;;;;;;;7.03;4.22;;;26.60;55.40;;;;;;6150793;28;80610;-68
2022/07/27 13:42:47;;;;;;;7.50;4.60;;;26.60;55.50;;;;;;6156318;28;80476;-67
2022/07/27 13:45:48;;;;;;;9.30;5.07;;;26.60;54.90;;;;;;6150811;28;80381;-68
2022/07/27 13:48:48;;;;;;;5.53;4.07;;;26.50;54.50;;;;;;6140844;28;81362;-66
2022/07/27 13:51:49;;;;;;;4.32;3.58;;;26.50;54.90;;;;;;6148452;28;80366;-67
2022/07/27 13:54:49;;;;;;;6.28;4.38;;;26.50;55.10;;;;;;6155755;28;80355;-71
2022/07/27 13:57:50;;;;;;;9.82;4.32;;;26.60;55.30;;;;;;6148405;28;80532;-66
2022/07/27 14:00:50;;;;;;;7.00;4.43;;;26.60;55.40;;;;;;6155637;28;80518;-68
2022/07/27 14:03:51;;;;;;;6.25;4.20;;;26.70;55.50;;;;;;6156100;28;80464;-67
2022/07/27 14:06:51;;;;;;;9.25;4.50;;;26.70;55.60;;;;;;6150110;28;80484;-68
2022/07/27 14:13:11;;;;;;;10.45;4.65;;;26.70;56.50;;;;;;6149509;28;80391;-67
2022/07/27 14:16:12;;;;;;;6.13;4.18;;;26.70;56.70;;;;;;6145096;28;80703;-67
2022/07/27 14:19:12;;;;;;;6.60;3.67;;;26.70;56.90;;;;;;6151038;28;81215;-66
2022/07/27 14:22:13;;;;;;;9.77;4.53;;;26.70;56.90;;;;;;6146613;28;80325;-66
2022/07/27 14:25:13;;;;;;;12.20;4.68;;;26.70;56.40;;;;;;6146099;28;81092;-66
2022/07/27 14:28:14;;;;;;;5.25;4.05;;;26.70;55.90;;;;;;6153081;28;81406;-67
2022/07/27 14:31:15;;;;;;;7.40;4.80;;;26.70;55.90;;;;;;6147285;28;81691;-67
2022/07/27 14:34:15;;;;;;;7.15;5.05;;;26.70;56.10;;;;;;6152974;28;82165;-67
2022/07/27 14:37:16;;;;;;;11.82;5.40;;;26.70;56.20;;;;;;6145231;28;80321;-66
2022/07/27 14:40:17;;;;;;;13.23;5.50;;;26.70;56.30;;;;;;6144913;28;80903;-67
2022/07/27 14:43:17;;;;;;;8.80;4.65;;;26.70;56.10;;;;;;6158178;28;80703;-67
2022/07/27 14:46:18;;;;;;;6.75;4.30;;;26.70;55.80;;;;;;6141741;28;81856;-66
2022/07/27 14:49:20;;;;;;;8.48;4.97;;;26.70;55.90;;;;;;6150521;28;80393;-66
2022/07/27 14:52:20;;;;;;;6.78;4.57;;;26.70;55.70;;;;;;6153331;28;80044;-65
2022/07/27 14:55:21;;;;;;;9.50;5.07;;;26.70;55.70;;;;;;6147825;28;80343;-65
2022/07/27 14:58:21;;;;;;;9.45;4.88;;;26.70;55.40;;;;;;6149744;28;80656;-67
2022/07/27 15:01:22;;;;;;;8.10;4.85;;;26.70;55.50;;;;;;6151588;28;81703;-68
2022/07/27 15:04:22;;;;;;;6.35;5.05;;;26.70;55.30;;;;;;6157256;28;80023;-67
2022/07/27 15:07:23;;;;;;;9.38;4.13;;;26.70;55.10;;;;;;6157842;28;80440;-67
2022/07/27 15:10:23;;;;;;;6.75;4.35;;;26.70;55.40;;;;;;6150489;28;80922;-66
2022/07/27 15:13:24;;;;;;;12.95;5.22;;;26.70;55.00;;;;;;6156696;28;81188;-68
2022/07/27 15:16:24;;;;;;;6.65;4.55;;;26.70;55.20;;;;;;6155435;28;80902;-67
2022/07/27 15:19:25;;;;;;;8.45;4.93;;;26.70;55.30;;;;;;6155041;28;80214;-67
2022/07/27 15:22:25;;;;;;;5.88;4.78;;;26.70;54.60;;;;;;6157927;28;80979;-66
2022/07/27 15:25:26;;;;;;;8.18;5.57;;;26.70;54.70;;;;;;6151063;28;80859;-67
2022/07/27 15:28:26;;;;;;;7.30;4.15;;;26.70;54.20;;;;;;6155607;28;80447;-66
2022/07/27 15:31:27;;;;;;;7.60;4.53;;;26.70;54.20;;;;;;6152131;28;80556;-67
2022/07/27 15:34:27;;;;;;;6.53;4.50;;;26.70;54.20;;;;;;6151762;28;81382;-74
2022/07/27 15:37:28;;;;;;;7.32;4.72;;;26.60;53.60;;;;;;6146528;28;80219;-66